KSJT/SJT METAR and TAF weather

Enter ICAO airport designator
Station Type Date Time Source
KSJT METAR 2020/09/26 19:51 UTC NOAA

KSJT 261951Z 19016G22KT 10SM CLR 31/18 A2984 RMK AO2 SLP083 T03110183


Station Type Date Time Source
KSJT Decoded METAR 2020/09/26 19:51 UTC NOAA

MATHIS FIELD, TX, United States (KSJT) 31-21N 100-30W 581M
Sep 26, 2020 - 03:51 PM EDT / 2020.09.26 1951 UTC
Wind: from the S (190 degrees) at 18 MPH (16 KT) gusting to 25 MPH (22 KT):0
Visibility: 10 mile(s):0
Sky conditions: clear
Temperature: 88.0 F (31.1 C)
Dew Point: 64.9 F (18.3 C)
Relative Humidity: 46%
Pressure (altimeter): 29.84 in. Hg (1010 hPa)
ob: KSJT 261951Z 19016G22KT 10SM CLR 31/18 A2984 RMK AO2 SLP083 T03110183
cycle: 20

Station Type Date Time Source
KSJT TAF 2020/09/26 18:39 UTC NOAA

TAF KSJT 261737Z 2618/2718 19014G20KT P6SM SKC
FM270000 18010KT P6SM SKC
FM270900 18013G20KT P6SM SKC

Example: see airport list